Airport View

Enter AWOS ICAO identifier for current METAR.

ex. KFNL

KCAD 011315Z AUTO 24003KT 10SM SCT050 08/07 A2982 RMK AO2 T00770074

1 Oct 2020 13:21

Frequency: 128.325

Phone: 231-779-9536

Other Area AWOS: KTVC - KHTL - KRQB - KMBL

TAF KTVC 011120Z 0112/0212 30007KT P6SM VCSH SCT035 FM011500 34010G19KT P6SM -SHRA BKN025 FM012300 35010G19KT P6SM VCSH BKN035 FM020400 35009KT P6SM -SHRA BKN030